createdAt,value
2019-03-12T00:00:02.095Z,46.63
2019-03-12T00:02:33.871Z,46.76
2019-03-12T00:05:05.896Z,46.80
2019-03-12T00:07:37.646Z,46.85
2019-03-12T00:10:10.051Z,46.98
2019-03-12T00:12:41.689Z,47.04
2019-03-12T00:15:13.468Z,47.08
2019-03-12T00:17:45.166Z,47.16
2019-03-12T00:20:16.785Z,47.21
2019-03-12T00:22:48.623Z,47.24
2019-03-12T00:25:20.209Z,47.26
2019-03-12T00:27:51.841Z,47.37
2019-03-12T00:30:23.830Z,47.37
2019-03-12T00:32:55.917Z,47.41
2019-03-12T00:35:27.751Z,47.41
2019-03-12T00:37:59.532Z,47.42
2019-03-12T00:40:31.123Z,47.41
2019-03-12T00:43:02.718Z,47.43
2019-03-12T00:45:34.300Z,47.50
2019-03-12T00:48:05.986Z,47.56
2019-03-12T00:50:37.630Z,47.56
2019-03-12T00:53:09.387Z,47.53
2019-03-12T00:55:40.997Z,47.56
2019-03-12T00:58:12.587Z,47.57
2019-03-12T01:00:44.180Z,47.60
2019-03-12T01:03:15.774Z,47.63
2019-03-12T01:05:47.384Z,47.68
2019-03-12T01:08:18.965Z,47.83
2019-03-12T01:10:50.985Z,47.96
2019-03-12T01:13:22.595Z,48.08
2019-03-12T01:15:54.200Z,48.16
2019-03-12T01:18:25.793Z,48.24
2019-03-12T01:20:57.419Z,48.27
2019-03-12T01:23:29.091Z,48.32
2019-03-12T01:26:00.801Z,48.38
2019-03-12T01:28:32.457Z,48.39
2019-03-12T01:31:04.053Z,48.40
2019-03-12T01:33:35.720Z,48.41
2019-03-12T01:36:07.371Z,48.42
2019-03-12T01:38:39.001Z,48.45
2019-03-12T01:41:10.769Z,48.54
2019-03-12T01:43:42.342Z,48.59
2019-03-12T01:46:13.933Z,48.62
2019-03-12T01:48:45.523Z,48.63
2019-03-12T01:51:17.106Z,48.64
2019-03-12T01:53:48.678Z,48.68
2019-03-12T01:56:20.553Z,48.70
2019-03-12T01:58:52.114Z,48.70
2019-03-12T02:01:23.674Z,48.68
2019-03-12T02:03:56.842Z,48.75
2019-03-12T02:06:28.439Z,48.74
2019-03-12T02:09:00.309Z,48.82
2019-03-12T02:11:32.146Z,48.85
2019-03-12T02:14:21.451Z,48.89
2019-03-12T02:16:53.001Z,48.92
2019-03-12T02:19:24.868Z,48.96
2019-03-12T02:21:56.462Z,48.95
2019-03-12T02:24:28.516Z,48.95
2019-03-12T02:27:00.204Z,48.96
2019-03-12T02:29:31.767Z,48.92
2019-03-12T02:32:04.404Z,48.93
2019-03-12T02:34:36.032Z,48.97
2019-03-12T02:37:08.056Z,49.00
2019-03-12T02:39:39.607Z,49.08
2019-03-12T02:42:12.806Z,49.17
2019-03-12T02:44:45.222Z,49.21
2019-03-12T02:47:16.787Z,49.26
2019-03-12T02:49:48.384Z,49.27
2019-03-12T02:52:20.209Z,49.31
2019-03-12T02:54:51.821Z,49.32
2019-03-12T02:57:23.460Z,49.33
2019-03-12T02:59:55.242Z,49.40
2019-03-12T03:02:26.821Z,49.44
2019-03-12T03:04:58.412Z,49.48
2019-03-12T03:07:47.749Z,49.51
2019-03-12T03:10:19.477Z,49.60
2019-03-12T03:12:51.165Z,49.57
2019-03-12T03:15:25.807Z,49.63
2019-03-12T03:17:57.358Z,49.71
2019-03-12T03:20:28.970Z,49.74
2019-03-12T03:23:00.560Z,49.81
2019-03-12T03:25:32.142Z,49.82
2019-03-12T03:28:03.781Z,49.88
2019-03-12T03:30:35.768Z,49.88
2019-03-12T03:33:07.723Z,49.92
2019-03-12T03:35:39.275Z,49.94
2019-03-12T03:38:10.997Z,49.96
2019-03-12T03:40:42.579Z,49.99
2019-03-12T03:43:14.170Z,49.99
2019-03-12T03:45:45.948Z,50.01
2019-03-12T03:48:17.626Z,50.05
2019-03-12T03:50:49.208Z,50.05
2019-03-12T03:53:20.780Z,50.08
2019-03-12T03:55:52.478Z,50.09
2019-03-12T03:58:24.546Z,50.04
2019-03-12T04:00:56.375Z,50.08
2019-03-12T04:03:27.939Z,50.05
2019-03-12T04:05:59.611Z,50.05
2019-03-12T04:08:31.184Z,50.08
2019-03-12T04:11:02.900Z,50.10
2019-03-12T04:13:36.044Z,50.10
2019-03-12T04:16:09.365Z,50.11
2019-03-12T04:18:42.649Z,50.07
2019-03-12T04:21:14.323Z,50.03
2019-03-12T04:23:46.677Z,50.04
2019-03-12T04:26:18.357Z,50.01
2019-03-12T04:28:49.996Z,49.99
2019-03-12T04:31:21.588Z,49.98
2019-03-12T04:34:30.209Z,49.96
2019-03-12T04:37:01.826Z,49.96
2019-03-12T04:39:33.405Z,49.93
2019-03-12T04:42:05.269Z,49.95
2019-03-12T04:44:37.003Z,49.95
2019-03-12T04:47:08.584Z,49.92
2019-03-12T04:49:40.180Z,49.89
2019-03-12T04:52:11.804Z,49.86
2019-03-12T04:54:43.410Z,49.83
2019-03-12T04:57:15.200Z,49.79
2019-03-12T04:59:46.823Z,49.78
2019-03-12T05:02:18.687Z,49.78
2019-03-12T05:04:50.499Z,49.78
2019-03-12T05:07:22.082Z,49.78
2019-03-12T05:09:53.836Z,49.82
2019-03-12T05:12:25.635Z,49.84
2019-03-12T05:14:57.222Z,49.86
2019-03-12T05:17:31.767Z,49.88
2019-03-12T05:20:03.368Z,49.91
2019-03-12T05:22:34.986Z,49.92
2019-03-12T05:25:07.951Z,49.99
2019-03-12T05:27:39.678Z,50.08
2019-03-12T05:30:15.325Z,50.11
2019-03-12T05:32:47.050Z,50.12
2019-03-12T05:35:18.877Z,50.15
2019-03-12T05:37:50.586Z,50.19
2019-03-12T05:40:22.239Z,50.21
2019-03-12T05:42:53.880Z,50.27
2019-03-12T05:45:25.649Z,50.28
2019-03-12T05:47:57.258Z,50.34
2019-03-12T05:50:28.883Z,50.40
2019-03-12T05:53:16.518Z,50.48
2019-03-12T05:55:48.101Z,50.52
2019-03-12T05:58:19.707Z,50.52
2019-03-12T06:00:51.474Z,50.56
2019-03-12T06:03:23.162Z,50.60
2019-03-12T06:05:54.858Z,50.66
2019-03-12T06:08:26.494Z,50.71
2019-03-12T06:10:58.310Z,50.80
2019-03-12T06:13:29.885Z,50.81
2019-03-12T06:16:01.704Z,50.88
2019-03-12T06:18:33.406Z,50.92
2019-03-12T06:21:05.025Z,50.97
2019-03-12T06:23:36.624Z,51.02
2019-03-12T06:26:08.319Z,51.08
2019-03-12T06:28:39.943Z,51.13
2019-03-12T06:31:30.580Z,51.22
2019-03-12T06:34:06.585Z,51.27
2019-03-12T06:36:58.869Z,51.29
2019-03-12T06:39:47.755Z,51.31
2019-03-12T06:42:44.485Z,51.26
2019-03-12T06:45:40.601Z,51.25
2019-03-12T06:48:43.107Z,51.22
2019-03-12T06:51:33.682Z,51.20
2019-03-12T06:54:10.989Z,51.15
2019-03-12T06:56:51.703Z,51.14
2019-03-12T06:59:39.221Z,51.14
2019-03-12T07:02:23.495Z,51.11
2019-03-12T07:05:12.884Z,51.07
2019-03-12T07:08:00.944Z,51.04
2019-03-12T07:10:51.675Z,51.04
2019-03-12T07:13:42.249Z,51.04
2019-03-12T07:16:19.711Z,51.02
2019-03-12T07:19:13.113Z,51.00
2019-03-12T07:22:02.119Z,51.00
2019-03-12T07:24:52.629Z,51.00
2019-03-12T07:27:29.925Z,50.99
2019-03-12T07:30:20.408Z,51.02
2019-03-12T07:32:58.840Z,51.04
2019-03-12T07:35:48.042Z,51.03
2019-03-12T07:38:28.554Z,51.01
2019-03-12T07:41:30.285Z,50.97
2019-03-12T07:44:01.460Z,50.95
2019-03-12T07:46:51.911Z,50.95
2019-03-12T07:49:45.184Z,50.96
2019-03-12T07:52:24.500Z,50.95
2019-03-12T07:55:25.375Z,50.94
2019-03-12T07:58:12.006Z,50.88
2019-03-12T08:01:08.497Z,50.80
2019-03-12T08:03:59.468Z,50.78
2019-03-12T08:06:41.229Z,50.64
2019-03-12T08:09:28.502Z,50.48
2019-03-12T08:12:12.113Z,50.34
2019-03-12T08:15:05.803Z,50.19
2019-03-12T08:18:01.941Z,50.13
2019-03-12T08:20:51.353Z,50.08
2019-03-12T08:23:33.281Z,50.04
2019-03-12T08:26:29.704Z,49.95
2019-03-12T08:29:38.542Z,49.88
2019-03-12T08:32:32.102Z,49.77
2019-03-12T08:35:25.557Z,49.71
2019-03-12T08:38:08.060Z,49.61
2019-03-12T08:40:52.461Z,49.51
2019-03-12T08:43:37.917Z,49.37
2019-03-12T08:46:27.346Z,49.25
2019-03-12T08:49:16.826Z,49.15
2019-03-12T08:51:59.388Z,49.05
2019-03-12T08:54:53.791Z,48.98
2019-03-12T08:57:36.228Z,48.96
2019-03-12T09:00:30.259Z,48.83
2019-03-12T09:03:09.585Z,48.76
2019-03-12T09:05:47.274Z,48.66
2019-03-12T09:08:43.623Z,48.60
2019-03-12T09:11:34.276Z,48.53
2019-03-12T09:14:23.482Z,48.40
2019-03-12T09:17:23.174Z,48.37
2019-03-12T09:20:13.722Z,48.27
2019-03-12T09:23:04.328Z,48.17
2019-03-12T09:26:03.918Z,48.14
2019-03-12T09:29:06.638Z,48.08
2019-03-12T09:31:47.240Z,47.91
2019-03-12T09:34:34.722Z,47.70
2019-03-12T09:37:14.992Z,47.47
2019-03-12T09:40:08.059Z,47.25
2019-03-12T09:42:53.475Z,47.05
2019-03-12T09:45:42.840Z,46.88
2019-03-12T09:48:42.570Z,46.83
2019-03-12T09:51:24.450Z,46.68
2019-03-12T09:54:33.427Z,46.54
2019-03-12T09:57:27.157Z,46.47
2019-03-12T10:00:32.700Z,46.43
2019-03-12T10:03:13.496Z,46.39
2019-03-12T10:06:09.647Z,46.28
2019-03-12T10:08:59.153Z,46.06
2019-03-12T10:11:46.594Z,45.71
2019-03-12T10:14:35.825Z,45.58
2019-03-12T10:17:44.711Z,45.46
2019-03-12T10:20:40.919Z,45.35
2019-03-12T10:23:30.027Z,45.29
2019-03-12T10:26:26.416Z,45.38
2019-03-12T10:29:19.692Z,45.13
2019-03-12T10:32:17.192Z,44.82
2019-03-12T10:35:14.153Z,44.78
2019-03-12T10:37:51.819Z,44.74
2019-03-12T10:40:41.714Z,44.67
2019-03-12T10:43:38.275Z,44.42
2019-03-12T10:46:17.965Z,44.45
2019-03-12T10:48:50.014Z,44.41
2019-03-12T10:51:21.768Z,44.37
2019-03-12T10:53:53.502Z,44.32
2019-03-12T10:56:25.137Z,44.08
2019-03-12T10:58:56.825Z,43.71
2019-03-12T11:01:28.492Z,43.86
2019-03-12T11:04:00.336Z,43.74
2019-03-12T11:06:32.037Z,43.63
2019-03-12T11:09:05.639Z,43.28
2019-03-12T11:11:37.424Z,43.07
2019-03-12T11:14:09.083Z,43.07
2019-03-12T11:16:40.699Z,42.94
2019-03-12T11:19:12.290Z,42.88
2019-03-12T11:21:44.016Z,42.83
2019-03-12T11:24:15.679Z,42.64
2019-03-12T11:26:47.293Z,42.45
2019-03-12T11:29:18.886Z,42.34
2019-03-12T11:31:50.524Z,42.11
2019-03-12T11:34:22.221Z,42.08
2019-03-12T11:36:54.079Z,42.00
2019-03-12T11:39:25.799Z,41.96
2019-03-12T11:41:57.682Z,41.89
2019-03-12T11:44:29.454Z,41.89
2019-03-12T11:47:01.373Z,41.70
2019-03-12T11:49:33.133Z,41.57
2019-03-12T11:52:05.223Z,41.56
2019-03-12T11:54:37.183Z,41.52
2019-03-12T11:57:08.826Z,41.29
2019-03-12T11:59:40.506Z,41.19
2019-03-12T12:02:12.259Z,41.12
2019-03-12T12:04:44.004Z,41.10
2019-03-12T12:07:16.158Z,40.90
2019-03-12T12:09:47.768Z,40.72
2019-03-12T12:12:19.588Z,40.24
2019-03-12T12:14:51.296Z,40.21
2019-03-12T12:17:23.269Z,40.12
2019-03-12T12:19:54.998Z,39.79
2019-03-12T12:22:26.941Z,39.70
2019-03-12T12:24:58.784Z,39.40
2019-03-12T12:27:30.911Z,39.29
2019-03-12T12:30:02.798Z,39.35
2019-03-12T12:32:34.407Z,39.20
2019-03-12T12:35:07.485Z,39.10
2019-03-12T12:37:39.190Z,38.98
2019-03-12T12:40:13.839Z,38.62
2019-03-12T12:42:45.765Z,38.60
2019-03-12T12:45:19.211Z,38.60
2019-03-12T12:47:50.834Z,38.35
2019-03-12T12:50:22.727Z,38.19
2019-03-12T12:52:54.313Z,38.05
2019-03-12T12:55:26.216Z,37.93
2019-03-12T12:57:58.317Z,37.62
2019-03-12T13:00:30.185Z,37.70
2019-03-12T13:03:01.858Z,37.52
2019-03-12T13:05:33.559Z,37.37
2019-03-12T13:08:05.212Z,37.42
2019-03-12T13:10:36.933Z,37.27
2019-03-12T13:13:08.698Z,37.24
2019-03-12T13:15:40.384Z,37.21
2019-03-12T13:18:12.277Z,37.06
2019-03-12T13:20:44.003Z,36.71
2019-03-12T13:23:16.108Z,36.74
2019-03-12T13:25:47.993Z,36.63
2019-03-12T13:28:20.320Z,36.44
2019-03-12T13:30:52.027Z,36.52
2019-03-12T13:33:23.635Z,36.54
2019-03-12T13:35:55.283Z,36.56
2019-03-12T13:38:27.345Z,36.38
2019-03-12T13:41:02.903Z,36.32
2019-03-12T13:43:32.803Z,36.23
2019-03-12T13:46:04.531Z,36.20
2019-03-12T13:48:36.263Z,36.19
2019-03-12T13:51:08.520Z,36.06
2019-03-12T13:53:40.553Z,36.16
2019-03-12T13:56:12.713Z,36.19
2019-03-12T13:58:44.330Z,36.19
2019-03-12T14:01:16.057Z,36.17
2019-03-12T14:03:47.683Z,36.14
2019-03-12T14:06:19.365Z,36.15
2019-03-12T14:08:50.985Z,35.79
2019-03-12T14:11:22.871Z,35.96
2019-03-12T14:13:54.510Z,35.87
2019-03-12T14:16:26.208Z,35.88
2019-03-12T14:18:57.934Z,35.88
2019-03-12T14:21:34.832Z,35.79
2019-03-12T14:24:06.642Z,35.70
2019-03-12T14:26:38.612Z,35.51
2019-03-12T14:29:10.313Z,35.58
2019-03-12T14:31:41.933Z,35.31
2019-03-12T14:34:13.662Z,35.30
2019-03-12T14:36:45.296Z,35.24
2019-03-12T14:39:17.511Z,35.17
2019-03-12T14:41:49.389Z,35.12
2019-03-12T14:44:21.338Z,35.04
2019-03-12T14:46:53.221Z,34.86
2019-03-12T14:49:24.959Z,34.74
2019-03-12T14:52:23.021Z,34.41
2019-03-12T14:54:54.788Z,34.38
2019-03-12T14:57:26.439Z,34.31
2019-03-12T14:59:58.147Z,34.17
2019-03-12T15:02:29.842Z,33.90
2019-03-12T15:05:01.535Z,33.88
2019-03-12T15:07:33.163Z,33.91
2019-03-12T15:10:05.071Z,33.88
2019-03-12T15:12:37.066Z,33.82
2019-03-12T15:15:09.208Z,33.75
2019-03-12T15:17:40.919Z,33.50
2019-03-12T15:20:13.435Z,33.34
2019-03-12T15:22:45.393Z,33.21
2019-03-12T15:25:17.063Z,33.09
2019-03-12T15:27:48.795Z,32.94
2019-03-12T15:30:20.994Z,32.89
2019-03-12T15:32:52.721Z,32.75
2019-03-12T15:35:24.376Z,32.70
2019-03-12T15:37:56.039Z,32.59
2019-03-12T15:40:27.679Z,32.44
2019-03-12T15:42:59.359Z,32.32
2019-03-12T15:45:31.222Z,32.20
2019-03-12T15:48:02.860Z,32.11
2019-03-12T15:50:34.912Z,32.12
2019-03-12T15:53:07.379Z,32.03
2019-03-12T15:55:40.217Z,31.92
2019-03-12T15:58:12.085Z,31.95
2019-03-12T16:00:43.896Z,31.95
2019-03-12T16:03:15.608Z,31.88
2019-03-12T16:05:47.279Z,31.77
2019-03-12T16:08:18.905Z,31.71
2019-03-12T16:10:57.941Z,31.77
2019-03-12T16:13:24.322Z,31.77
2019-03-12T16:15:56.208Z,31.78
2019-03-12T16:18:27.839Z,31.70
2019-03-12T16:20:59.501Z,31.73
2019-03-12T16:23:31.159Z,31.69
2019-03-12T16:26:02.934Z,31.64
2019-03-12T16:28:34.729Z,31.59
2019-03-12T16:31:06.543Z,31.57
2019-03-12T16:33:38.293Z,31.58
2019-03-12T16:36:10.059Z,31.58
2019-03-12T16:38:41.793Z,31.57
2019-03-12T16:41:13.565Z,31.55
2019-03-12T16:43:45.336Z,31.53
2019-03-12T16:46:17.124Z,31.53
2019-03-12T16:48:48.969Z,31.44
2019-03-12T16:51:20.923Z,31.43
2019-03-12T16:53:52.578Z,31.36
2019-03-12T16:56:24.263Z,31.32
2019-03-12T16:58:55.948Z,31.23
2019-03-12T17:01:27.773Z,31.19
2019-03-12T17:03:59.498Z,31.24
2019-03-12T17:06:32.455Z,31.27
2019-03-12T17:09:05.229Z,31.25
2019-03-12T17:11:35.725Z,31.22
2019-03-12T17:14:05.664Z,31.26
2019-03-12T17:16:37.325Z,31.24
2019-03-12T17:19:09.004Z,31.24
2019-03-12T17:21:40.700Z,31.29
2019-03-12T17:24:12.526Z,31.27
2019-03-12T17:26:44.740Z,31.25
2019-03-12T17:29:16.560Z,31.29
2019-03-12T17:31:48.201Z,31.35
2019-03-12T17:34:19.879Z,31.44
2019-03-12T17:36:51.571Z,31.49
2019-03-12T17:39:23.405Z,31.50
2019-03-12T17:42:01.049Z,31.48
2019-03-12T17:44:32.781Z,31.46
2019-03-12T17:47:04.501Z,31.54
2019-03-12T17:49:36.309Z,31.71
2019-03-12T17:52:08.037Z,31.86
2019-03-12T17:54:39.744Z,32.04
2019-03-12T17:57:11.550Z,32.23
2019-03-12T17:59:43.395Z,32.39
2019-03-12T18:02:15.152Z,32.56
2019-03-12T18:04:46.915Z,32.70
2019-03-12T18:07:18.717Z,32.83
2019-03-12T18:09:50.406Z,32.99
2019-03-12T18:12:22.820Z,33.11
2019-03-12T18:14:54.678Z,33.25
2019-03-12T18:17:26.478Z,33.37
2019-03-12T18:19:58.212Z,33.50
2019-03-12T18:22:29.983Z,33.66
2019-03-12T18:25:01.835Z,33.79
2019-03-12T18:27:33.647Z,33.87
2019-03-12T18:30:05.873Z,33.96
2019-03-12T18:32:37.663Z,34.05
2019-03-12T18:35:09.559Z,34.19
2019-03-12T18:37:41.302Z,34.29
2019-03-12T18:40:18.462Z,34.35
2019-03-12T18:42:50.490Z,34.44
2019-03-12T18:45:23.742Z,34.50
2019-03-12T18:47:55.511Z,34.59
2019-03-12T18:50:27.264Z,34.67
2019-03-12T18:52:59.144Z,34.75
2019-03-12T18:56:06.518Z,34.84
2019-03-12T18:58:38.468Z,34.91
2019-03-12T19:01:14.842Z,34.96
2019-03-12T19:03:46.601Z,35.03
2019-03-12T19:06:18.308Z,35.10
2019-03-12T19:08:50.018Z,35.12
2019-03-12T19:11:24.696Z,35.16
2019-03-12T19:13:57.236Z,35.21
2019-03-12T19:16:28.962Z,35.25
2019-03-12T19:19:00.857Z,35.30
2019-03-12T19:21:32.596Z,35.30
2019-03-12T19:24:04.795Z,35.29
2019-03-12T19:26:36.544Z,35.31
2019-03-12T19:29:08.677Z,35.24
2019-03-12T19:31:56.124Z,35.26
2019-03-12T19:34:32.621Z,35.26
2019-03-12T19:37:04.496Z,35.26
2019-03-12T19:39:37.173Z,35.29
2019-03-12T19:42:09.003Z,35.31
2019-03-12T19:44:40.839Z,35.29
2019-03-12T19:47:12.497Z,35.27
2019-03-12T19:49:44.452Z,35.31
2019-03-12T19:52:16.328Z,35.32
2019-03-12T19:54:48.114Z,35.34
2019-03-12T19:57:19.742Z,35.36
2019-03-12T19:59:51.625Z,35.37
2019-03-12T20:02:23.480Z,35.39
2019-03-12T20:04:55.313Z,35.40
2019-03-12T20:07:27.624Z,35.43
2019-03-12T20:10:56.736Z,35.39
2019-03-12T20:14:43.401Z,35.34
2019-03-12T20:18:16.141Z,35.28
2019-03-12T20:22:24.575Z,35.24
2019-03-12T20:25:49.054Z,35.21
2019-03-12T20:29:14.488Z,35.25
2019-03-12T20:32:19.760Z,35.34
2019-03-12T20:35:56.191Z,35.37
2019-03-12T20:39:35.762Z,35.43
2019-03-12T20:43:12.079Z,35.40
2019-03-12T20:46:38.636Z,35.46
2019-03-12T20:50:23.607Z,35.65
2019-03-12T20:53:52.919Z,35.71
2019-03-12T20:57:32.907Z,35.73
2019-03-12T21:01:21.623Z,35.84
2019-03-12T21:04:51.233Z,35.96
2019-03-12T21:08:15.741Z,36.12
2019-03-12T21:11:51.124Z,36.20
2019-03-12T21:15:20.078Z,36.32
2019-03-12T21:18:48.379Z,36.42
2019-03-12T21:22:19.060Z,36.71
2019-03-12T21:25:51.774Z,37.01
2019-03-12T21:29:22.020Z,37.27
2019-03-12T21:31:53.800Z,37.38
2019-03-12T21:34:25.601Z,37.33
2019-03-12T21:36:57.387Z,37.35
2019-03-12T21:39:29.109Z,37.13
2019-03-12T21:42:00.821Z,36.84
2019-03-12T21:44:32.542Z,36.25
2019-03-12T21:47:04.473Z,35.94
2019-03-12T21:49:36.887Z,35.57
2019-03-12T21:52:09.154Z,35.23
2019-03-12T21:54:41.804Z,34.78
2019-03-12T21:57:13.471Z,34.52
2019-03-12T21:59:45.231Z,34.50
2019-03-12T22:02:17.106Z,34.28
2019-03-12T22:04:49.194Z,34.31
2019-03-12T22:07:20.878Z,34.23
2019-03-12T22:09:52.645Z,34.34
2019-03-12T22:12:25.034Z,34.49
2019-03-12T22:14:56.773Z,34.65
2019-03-12T22:17:28.482Z,34.71
2019-03-12T22:20:00.548Z,34.91
2019-03-12T22:22:46.431Z,35.13
2019-03-12T22:25:18.187Z,35.34
2019-03-12T22:27:49.894Z,35.54
2019-03-12T22:30:23.216Z,35.84
2019-03-12T22:32:54.877Z,36.10
2019-03-12T22:35:26.515Z,36.28
2019-03-12T22:37:58.397Z,36.44
2019-03-12T22:40:30.011Z,36.62
2019-03-12T22:43:01.751Z,36.75
2019-03-12T22:45:33.398Z,36.93
2019-03-12T22:48:05.275Z,37.02
2019-03-12T22:50:37.002Z,37.17
2019-03-12T22:53:08.786Z,37.29
2019-03-12T22:55:40.373Z,37.36
2019-03-12T22:58:12.042Z,37.44
2019-03-12T23:00:44.220Z,37.55
2019-03-12T23:03:15.843Z,37.80
2019-03-12T23:05:47.503Z,38.10
2019-03-12T23:08:19.303Z,38.28
2019-03-12T23:10:52.087Z,38.54
2019-03-12T23:13:24.364Z,38.76
2019-03-12T23:15:56.100Z,39.10
2019-03-12T23:18:27.729Z,39.28
2019-03-12T23:20:59.425Z,39.42
2019-03-12T23:23:31.168Z,39.43
2019-03-12T23:26:02.784Z,39.92
2019-03-12T23:28:34.411Z,40.34
2019-03-12T23:31:06.029Z,40.57
2019-03-12T23:33:37.642Z,41.30
2019-03-12T23:36:09.260Z,41.66
2019-03-12T23:38:40.984Z,41.86
2019-03-12T23:41:12.577Z,42.43
2019-03-12T23:43:44.183Z,42.75
2019-03-12T23:46:15.915Z,42.67
2019-03-12T23:48:47.558Z,42.57
2019-03-12T23:51:19.186Z,42.67
2019-03-12T23:53:50.959Z,42.78
2019-03-12T23:56:22.559Z,43.17
2019-03-12T23:58:54.194Z,43.35
